Time;durP1;ratioP1;P1;durP2;ratioP2;P2;SDS_P1;SDS_P2;PMS_P1;PMS_P2;Temp;Humidity;BMP_temperature;BMP_pressure;BME280_temperature;BME280_humidity;BME280_pressure;Samples;Min_cycle;Max_cycle;Signal;HPM_P1;HPM_P2
2023/02/27 00:01:32;;;;;;;12.38;2.90;;;-3.90;99.90;;;-5.67;100.00;101924.97;5039702;28;20100;-77
2023/02/27 00:03:59;;;;;;;8.18;2.53;;;-3.90;99.90;;;-5.65;100.00;101935.53;5031524;28;20041;-78
2023/02/27 00:06:26;;;;;;;8.68;2.92;;;-3.90;99.90;;;-5.63;100.00;101942.47;5031501;28;20091;-77
2023/02/27 00:08:52;;;;;;;5.35;2.33;;;-3.90;99.90;;;-5.60;100.00;101932.63;5037064;28;20038;-78
2023/02/27 00:11:18;;;;;;;7.53;2.60;;;-3.80;99.90;;;-5.57;100.00;101935.13;5036139;28;20044;-78
2023/02/27 00:13:44;;;;;;;6.40;3.05;;;-3.80;99.90;;;-5.55;100.00;101934.13;5036351;28;20048;-78
2023/02/27 00:16:09;;;;;;;5.22;2.67;;;-3.80;99.90;;;-5.56;100.00;101920.91;5041370;28;20120;-78
2023/02/27 00:18:44;;;;;;;6.40;2.47;;;-3.70;99.90;;;-5.46;100.00;101934.56;5060780;28;20044;-78
2023/02/27 00:21:16;;;;;;;5.90;2.95;;;-3.70;99.90;;;-5.55;100.00;101931.44;5035495;28;20068;-78
2023/02/27 00:23:42;;;;;;;8.60;2.97;;;-3.80;99.90;;;-5.52;100.00;101933.09;5035713;28;20102;-78
2023/02/27 00:26:23;;;;;;;8.27;3.20;;;-3.80;99.90;;;-5.67;100.00;101930.28;5035339;28;20438;-78
2023/02/27 00:28:49;;;;;;;5.90;3.13;;;-3.90;99.90;;;-5.75;100.00;101929.84;5042462;28;20373;-78
2023/02/27 00:31:15;;;;;;;8.02;2.72;;;-4.00;99.90;;;-5.83;100.00;101926.72;5043277;28;20036;-78
2023/02/27 00:33:40;;;;;;;8.98;2.92;;;-4.00;99.90;;;-5.87;100.00;101930.44;5037292;28;20505;-78
2023/02/27 00:36:08;;;;;;;6.05;2.83;;;-4.10;99.90;;;-5.93;100.00;101934.28;5041745;28;20063;-79
2023/02/27 00:38:34;;;;;;;6.82;3.40;;;-4.10;99.90;;;-5.89;100.00;101929.66;5062464;28;20084;-78
2023/02/27 00:41:01;;;;;;;4.35;2.60;;;-4.20;99.90;;;-5.90;100.00;101930.59;5041946;28;20534;-78
2023/02/27 00:43:27;;;;;;;7.72;3.70;;;-4.20;99.90;;;-5.90;100.00;101928.81;5053016;28;20052;-78
2023/02/27 00:45:58;;;;;;;;;;;-4.20;99.90;;;-5.77;100.00;101924.56;5041757;28;20037;-78
2023/02/27 00:48:27;;;;;;;9.05;2.78;;;-4.00;99.90;;;-5.60;100.00;101924.66;5035704;28;19924;-78
2023/02/27 00:50:53;;;;;;;8.73;3.47;;;-3.80;99.90;;;-5.58;100.00;101920.97;5049052;28;20094;-78
2023/02/27 00:53:19;;;;;;;7.88;3.35;;;-3.80;99.90;;;-5.60;100.00;101936.16;5034775;28;20509;-78
2023/02/27 00:55:46;;;;;;;6.13;3.30;;;-3.80;99.90;;;-5.65;100.00;101933.72;5036827;28;20042;-78
2023/02/27 00:58:12;;;;;;;8.35;3.50;;;-3.90;99.90;;;-5.70;100.00;101933.09;5044259;28;20044;-78
2023/02/27 01:00:38;;;;;;;8.35;3.47;;;-4.00;99.90;;;-5.77;100.00;101927.25;5047247;28;20049;-78
2023/02/27 01:03:04;;;;;;;8.90;3.65;;;-4.00;99.90;;;-5.81;100.00;101927.50;5040690;28;20045;-78
2023/02/27 01:05:30;;;;;;;6.53;3.35;;;-4.00;99.90;;;-5.85;100.00;101933.88;5041750;28;20442;-78
2023/02/27 01:07:59;;;;;;;7.85;3.30;;;-4.10;99.90;;;-5.86;100.00;101933.03;5049640;28;20033;-78
2023/02/27 01:10:29;;;;;;;12.50;3.63;;;-4.10;99.90;;;-5.63;100.00;101921.22;5037732;28;20121;-78
2023/02/27 01:12:55;;;;;;;10.88;3.58;;;-3.90;99.90;;;-5.20;100.00;101926.06;5038695;28;20042;-78
2023/02/27 01:15:20;;;;;;;8.18;3.78;;;-3.60;99.90;;;-4.94;100.00;101923.78;5038604;28;20080;-79
2023/02/27 01:17:48;;;;;;;8.55;4.07;;;-3.40;99.90;;;-4.74;100.00;101928.97;5047149;28;20032;-78
2023/02/27 01:20:14;;;;;;;11.83;4.60;;;-3.20;99.90;;;-4.79;100.00;101922.06;5041920;28;20121;-76
2023/02/27 01:22:40;;;;;;;11.02;4.28;;;-3.10;99.90;;;-4.92;100.00;101935.19;5045505;28;20317;-77
2023/02/27 01:25:08;;;;;;;8.73;3.58;;;-3.20;99.90;;;-5.13;100.00;101923.94;5035439;28;20025;-79
2023/02/27 01:27:35;;;;;;;8.18;4.13;;;-3.40;99.90;;;-5.02;100.00;101930.50;5038178;28;20519;-77
2023/02/27 01:30:02;;;;;;;13.57;4.85;;;-3.40;99.90;;;-5.06;100.00;101929.78;5048057;28;20060;-79
2023/02/27 01:32:28;;;;;;;9.43;3.90;;;-3.40;99.90;;;-5.38;100.00;101913.75;5040179;28;20489;-77
2023/02/27 01:34:53;;;;;;;11.30;3.58;;;-3.60;99.90;;;-5.53;100.00;101915.44;5050583;28;20071;-78
2023/02/27 01:37:19;;;;;;;7.65;3.70;;;-3.70;99.90;;;-5.64;100.00;101919.50;5062906;28;20055;-80
2023/02/27 01:39:45;;;;;;;8.32;3.85;;;-3.80;99.90;;;-5.72;100.00;101924.34;5052691;28;20107;-79
2023/02/27 01:42:23;;;;;;;9.77;3.88;;;-3.90;99.90;;;-5.79;100.00;101918.47;5052208;28;20029;-77
2023/02/27 01:45:29;;;;;;;12.27;4.50;;;-3.90;99.90;;;-5.57;100.00;101920.03;5039105;28;20048;-77
2023/02/27 01:48:07;;;;;;;8.35;3.75;;;-3.90;99.90;;;-5.60;100.00;101912.22;5034165;28;20033;-78
2023/02/27 01:50:47;;;;;;;8.55;3.90;;;-3.90;99.90;;;-5.46;100.00;101908.84;5042553;28;20123;-77
2023/02/27 01:53:18;;;;;;;6.47;3.70;;;-3.80;99.90;;;-5.26;100.00;101913.09;5044687;28;20041;-79
2023/02/27 01:55:47;;;;;;;7.97;3.40;;;-3.60;99.90;;;-5.24;100.00;101905.88;5049023;28;20029;-79
2023/02/27 01:58:17;;;;;;;9.45;3.28;;;-3.50;99.90;;;-5.08;100.00;101915.72;5058336;28;20602;-78
2023/02/27 02:00:47;;;;;;;9.30;3.65;;;-3.40;99.90;;;-5.08;100.00;101924.53;5064359;28;20025;-78
2023/02/27 02:03:24;;;;;;;8.15;3.58;;;-3.30;99.90;;;-5.16;100.00;101918.78;5042862;28;20104;-79
2023/02/27 02:05:55;;;;;;;8.15;3.50;;;-3.30;99.90;;;-5.11;100.00;101932.69;5037883;28;20551;-78
2023/02/27 02:08:29;;;;;;;8.65;4.38;;;-3.40;99.90;;;-5.10;100.00;101937.06;5040474;28;20057;-79
2023/02/27 02:10:57;;;;;;;7.82;3.75;;;-3.30;99.90;;;-5.07;100.00;101936.06;5056461;28;20396;-78
2023/02/27 02:13:25;;;;;;;10.45;3.60;;;-3.30;99.90;;;-5.09;100.00;101935.28;5038774;28;20360;-78
2023/02/27 02:16:15;;;;;;;6.78;3.55;;;-3.30;99.90;;;-5.16;100.00;101932.09;5042591;28;20029;-78
2023/02/27 02:18:57;;;;;;;7.65;4.00;;;-3.30;99.90;;;-5.12;100.00;101932.78;5036617;28;20059;-78
2023/02/27 02:22:24;;;;;;;8.15;3.25;;;-3.30;99.90;;;-5.26;100.00;101920.22;5052405;28;20381;-78
2023/02/27 02:25:27;;;;;;;10.75;3.40;;;-3.40;99.90;;;-5.14;100.00;101932.00;5048615;28;20083;-78
2023/02/27 02:28:04;;;;;;;8.85;3.58;;;-3.30;99.90;;;-5.18;100.00;101930.44;5034255;28;20461;-77
2023/02/27 02:31:06;;;;;;;8.40;3.97;;;-3.40;99.90;;;-5.22;100.00;101927.94;5035887;28;20037;-78
2023/02/27 02:34:09;;;;;;;5.93;3.58;;;-3.40;99.90;;;-5.22;100.00;101930.59;5048079;28;20492;-78
2023/02/27 02:37:40;;;;;;;8.43;3.88;;;-3.40;99.90;;;-5.27;100.00;101932.66;5054885;28;20143;-78
2023/02/27 02:40:36;;;;;;;7.47;3.70;;;-3.50;99.90;;;-5.53;100.00;101923.41;5031860;28;20507;-78
2023/02/27 02:43:30;;;;;;;8.88;3.35;;;-3.70;99.90;;;-5.87;100.00;101917.16;5053338;28;20033;-77
2023/02/27 02:46:13;;;;;;;9.15;3.85;;;-3.90;99.90;;;-6.07;100.00;101921.75;5043793;28;20065;-77
2023/02/27 02:49:25;;;;;;;8.10;3.55;;;-4.20;99.90;;;-6.29;100.00;101906.84;5048170;28;20037;-77
2023/02/27 02:52:41;;;;;;;8.02;3.70;;;-4.40;99.90;;;-6.48;100.00;101908.69;5043974;28;20037;-78
2023/02/27 02:55:44;;;;;;;7.68;3.58;;;-4.50;99.90;;;-6.56;100.00;101909.94;5056866;28;20071;-78
2023/02/27 02:58:35;;;;;;;8.18;3.80;;;-4.70;99.90;;;-6.64;100.00;101920.03;5059883;28;20033;-78
2023/02/27 03:01:42;;;;;;;11.73;3.67;;;-4.80;99.90;;;-6.33;100.00;101915.91;5042763;28;20061;-78
2023/02/27 03:04:26;;;;;;;7.68;3.90;;;-4.70;99.90;;;-6.55;100.00;101922.28;5035946;28;20044;-79
2023/02/27 03:07:29;;;;;;;7.13;3.60;;;-4.80;99.90;;;-6.65;100.00;101916.53;5031628;28;20507;-77
2023/02/27 03:10:14;;;;;;;8.45;3.78;;;-4.80;99.90;;;-6.58;100.00;101911.81;5036619;28;20068;-78
2023/02/27 03:12:59;;;;;;;10.73;4.10;;;-4.70;99.90;;;-6.44;100.00;101913.78;5051863;28;20033;-78
2023/02/27 03:15:34;;;;;;;8.45;3.72;;;-4.60;99.90;;;-6.35;100.00;101901.84;5044013;28;20028;-78
2023/02/27 03:18:19;;;;;;;10.50;3.55;;;-4.40;99.90;;;-6.09;100.00;101921.78;5056668;28;20116;-78
2023/02/27 03:20:54;;;;;;;8.50;4.72;;;-4.30;99.90;;;-5.99;100.00;101923.94;5035157;28;20095;-78
2023/02/27 03:23:31;;;;;;;12.20;3.65;;;-4.20;99.90;;;-6.14;100.00;101928.28;5056027;28;20116;-78
2023/02/27 03:25:58;;;;;;;6.63;3.58;;;-4.20;99.90;;;-6.22;100.00;101934.00;5039632;28;20033;-78
2023/02/27 03:28:39;;;;;;;9.13;4.20;;;-4.30;99.90;;;-6.26;100.00;101927.97;5055350;28;20025;-78
2023/02/27 03:31:48;;;;;;;8.93;4.20;;;-4.40;99.90;;;-6.05;100.00;101933.16;5042922;28;20037;-77
2023/02/27 03:34:36;;;;;;;9.55;3.88;;;-4.30;99.90;;;-6.19;100.00;101925.88;5032394;28;20052;-78
2023/02/27 03:37:25;;;;;;;9.55;3.83;;;-4.40;99.90;;;-6.32;100.00;101922.94;5058932;28;20029;-78
2023/02/27 03:40:29;;;;;;;9.20;4.22;;;-4.50;99.90;;;-6.38;100.00;101923.22;5055125;28;20124;-77
2023/02/27 03:43:30;;;;;;;10.50;4.38;;;-4.60;99.90;;;-5.91;100.00;101924.44;5041447;28;20128;-78
2023/02/27 03:46:09;;;;;;;16.13;5.40;;;-4.40;99.90;;;-5.77;100.00;101923.75;5053940;28;20387;-79
2023/02/27 03:48:35;;;;;;;11.07;4.43;;;-4.10;99.90;;;-5.82;100.00;101925.78;5055041;28;20047;-79
2023/02/27 03:51:01;;;;;;;9.95;4.43;;;-4.10;99.90;;;-5.83;100.00;101921.41;5049684;28;20032;-77
2023/02/27 03:53:59;;;;;;;15.07;5.25;;;-4.00;99.90;;;-5.98;100.00;101921.22;5045078;28;20484;-79
2023/02/27 03:56:40;;;;;;;10.50;4.68;;;-4.20;99.90;;;-6.16;100.00;101925.72;5046450;28;20108;-79
2023/02/27 03:59:07;;;;;;;8.00;4.13;;;-4.30;99.90;;;-6.21;100.00;101925.94;5061978;28;20038;-79
2023/02/27 04:01:35;;;;;;;;;;;-4.40;99.90;;;-6.38;100.00;101915.25;5057171;28;20102;-79
2023/02/27 04:04:11;;;;;;;7.68;3.58;;;-4.50;99.90;;;-6.54;100.00;101923.13;5041994;28;20384;-79
2023/02/27 04:07:23;;;;;;;7.70;4.00;;;-4.70;99.90;;;-6.76;100.00;101933.91;5035360;28;20045;-78
2023/02/27 04:10:35;;;;;;;8.80;3.88;;;-4.90;99.90;;;-6.96;100.00;101933.91;5040335;28;20162;-78
2023/02/27 04:13:19;;;;;;;9.50;4.20;;;-5.10;99.90;;;-6.60;100.00;101934.03;5034166;28;20060;-78
2023/02/27 04:16:02;;;;;;;9.65;4.60;;;-4.90;99.90;;;-6.57;100.00;101923.28;5050574;28;20147;-78
2023/02/27 04:19:10;;;;;;;9.30;4.22;;;-4.80;99.90;;;-6.59;100.00;101946.38;5040295;28;20366;-78
2023/02/27 04:22:25;;;;;;;8.43;3.92;;;-4.80;99.90;;;-6.61;100.00;101942.94;5044815;28;20040;-78
2023/02/27 04:25:20;;;;;;;9.00;4.32;;;-4.80;99.90;;;-6.64;100.00;101935.97;5047885;28;20041;-78
2023/02/27 04:28:06;;;;;;;9.57;4.15;;;-4.70;99.90;;;-6.50;100.00;101933.53;5042893;28;20124;-78
2023/02/27 04:30:54;;;;;;;9.30;4.70;;;-4.60;99.90;;;-6.32;100.00;101938.88;5045320;28;20107;-79
2023/02/27 04:33:45;;;;;;;9.77;4.20;;;-4.50;99.90;;;-6.25;100.00;101937.66;5034773;28;20044;-79
2023/02/27 04:36:29;;;;;;;9.57;4.97;;;-4.30;99.90;;;-6.26;100.00;101937.72;5039677;28;20184;-79
2023/02/27 04:39:32;;;;;;;8.50;4.30;;;-4.40;99.90;;;-6.35;100.00;101949.66;5049748;28;20524;-79
2023/02/27 04:42:10;;;;;;;14.05;4.60;;;-4.40;99.90;;;-6.41;100.00;101941.97;5034839;28;20052;-79
2023/02/27 04:44:39;;;;;;;10.27;4.20;;;-4.50;99.90;;;-6.31;100.00;101945.03;5042290;28;20097;-79
2023/02/27 04:47:08;;;;;;;9.05;4.47;;;-4.40;99.90;;;-6.22;100.00;101941.97;5040037;28;20068;-79
2023/02/27 04:50:27;;;;;;;9.10;4.60;;;-4.30;99.90;;;-6.22;100.00;101948.13;5045888;28;20064;-79
2023/02/27 04:53:00;;;;;;;9.15;4.75;;;-4.30;99.90;;;-6.25;100.00;101950.94;5034007;28;20505;-78
2023/02/27 04:55:36;;;;;;;10.57;5.35;;;-4.30;99.90;;;-6.29;100.00;101938.75;5034602;28;20053;-78
2023/02/27 04:58:10;;;;;;;16.17;5.57;;;-4.30;99.90;;;-6.32;100.00;101949.53;5049749;28;20124;-80
2023/02/27 05:00:41;;;;;;;8.35;4.97;;;-4.40;99.90;;;-6.34;100.00;101943.41;5065762;28;20040;-79
2023/02/27 05:03:18;;;;;;;11.68;5.22;;;-4.40;99.90;;;-6.29;100.00;101949.38;5035243;28;20034;-80
2023/02/27 05:05:47;;;;;;;12.75;4.80;;;-4.40;99.90;;;-6.11;100.00;101952.03;5041278;28;20033;-79
2023/02/27 05:08:33;;;;;;;14.35;5.28;;;-4.30;99.90;;;-6.05;100.00;101958.84;5040165;28;20037;-79
2023/02/27 05:11:12;;;;;;;10.73;5.70;;;-4.30;99.90;;;-5.49;100.00;101948.91;5045902;28;20030;-79
2023/02/27 05:14:25;;;;;;;10.63;5.15;;;-3.90;99.90;;;-5.59;100.00;101959.16;5039256;28;20095;-79
2023/02/27 05:17:05;;;;;;;10.90;4.70;;;-3.80;99.90;;;-5.78;100.00;101959.25;5042919;28;20463;-78
2023/02/27 05:19:33;;;;;;;9.25;4.95;;;-3.90;99.90;;;-5.97;100.00;101965.47;5043673;28;20055;-79
2023/02/27 05:22:40;;;;;;;11.13;5.32;;;-4.10;99.90;;;-5.96;100.00;101967.19;5042745;28;20053;-79
2023/02/27 05:25:26;;;;;;;15.32;5.60;;;-4.20;99.90;;;-5.62;100.00;101969.94;5047617;28;20040;-79
2023/02/27 05:28:16;;;;;;;13.38;4.88;;;-4.00;99.90;;;-5.52;100.00;101965.88;5048476;28;20048;-79
2023/02/27 05:30:57;;;;;;;10.77;6.00;;;-3.90;99.90;;;-5.38;100.00;101972.28;5040404;28;20037;-79
2023/02/27 05:33:31;;;;;;;11.57;6.30;;;-3.70;99.90;;;-5.33;100.00;101980.88;5053651;28;20032;-79
2023/02/27 05:36:50;;;;;;;17.23;6.72;;;-3.60;99.90;;;-5.24;100.00;101985.72;5041963;28;20033;-78
2023/02/27 05:39:22;;;;;;;14.38;5.57;;;-3.60;99.90;;;-5.24;100.00;101979.53;5035751;28;20096;-80
2023/02/27 05:41:55;;;;;;;13.32;6.13;;;-3.50;99.90;;;-5.06;100.00;101983.03;5050086;28;20031;-78
2023/02/27 05:44:54;;;;;;;12.88;5.72;;;-3.40;99.90;;;-4.98;100.00;101987.94;5049478;28;20037;-78
2023/02/27 05:47:26;;;;;;;12.63;5.53;;;-3.30;99.90;;;-4.86;100.00;101987.28;5038743;28;20040;-79
2023/02/27 05:50:07;;;;;;;14.77;6.90;;;-3.20;99.90;;;-4.67;100.00;102007.56;5048620;28;20045;-79
2023/02/27 05:52:38;;;;;;;13.05;7.20;;;-3.00;99.90;;;-4.61;100.00;101993.91;5038199;28;20030;-79
2023/02/27 05:55:26;;;;;;;12.77;6.55;;;-2.80;99.90;;;-4.62;100.00;102009.06;5048090;28;20041;-79
2023/02/27 05:58:40;;;;;;;14.40;6.82;;;-2.80;99.90;;;-4.50;100.00;102004.84;5039059;28;20033;-79
2023/02/27 06:01:09;;;;;;;16.63;7.28;;;-2.70;99.90;;;-4.49;100.00;102011.91;5046160;28;20145;-79
2023/02/27 06:03:38;;;;;;;16.02;7.05;;;-2.60;99.90;;;-4.48;100.00;102010.09;5042155;28;20376;-78
2023/02/27 06:06:10;;;;;;;14.30;6.18;;;-2.60;99.90;;;-4.48;100.00;102015.41;5055355;28;20041;-79
2023/02/27 06:08:36;;;;;;;13.38;6.20;;;-2.60;99.90;;;-4.42;100.00;102024.88;5042750;28;20128;-79
2023/02/27 06:11:05;;;;;;;12.02;6.03;;;-2.60;99.90;;;-4.40;100.00;102030.97;5040746;28;20155;-79
2023/02/27 06:13:31;;;;;;;11.23;5.70;;;-2.60;99.90;;;-4.39;100.00;102030.03;5058380;28;20131;-78
2023/02/27 06:15:57;;;;;;;12.60;6.40;;;-2.50;99.90;;;-4.29;100.00;102035.72;5064704;28;20036;-80
2023/02/27 06:18:23;;;;;;;18.30;6.70;;;-2.50;99.90;;;-4.24;100.00;102045.19;5045319;28;20048;-78
2023/02/27 06:20:49;;;;;;;13.95;6.43;;;-2.40;99.90;;;-4.14;100.00;102039.34;5038915;28;20040;-79
2023/02/27 06:23:16;;;;;;;13.02;6.25;;;-2.40;99.90;;;-4.10;100.00;102044.41;5056001;28;20503;-79
2023/02/27 06:25:42;;;;;;;13.50;6.07;;;-2.30;99.90;;;-4.09;100.00;102042.59;5045735;28;20060;-78
2023/02/27 06:28:09;;;;;;;12.07;6.13;;;-2.20;99.90;;;-4.00;100.00;102046.53;5049067;28;20418;-77
2023/02/27 06:30:35;;;;;;;12.75;6.00;;;-2.20;99.90;;;-3.96;100.00;102053.41;5057388;28;20120;-78
2023/02/27 06:33:02;;;;;;;9.57;5.22;;;-2.20;99.90;;;-3.91;100.00;102048.69;5038827;28;20083;-81
2023/02/27 06:35:29;;;;;;;9.80;5.03;;;-2.10;99.90;;;-3.85;100.00;102056.31;5032260;28;20457;-79
2023/02/27 06:37:55;;;;;;;10.88;5.28;;;-2.10;99.90;;;-3.90;100.00;102058.41;5046396;28;20044;-78
2023/02/27 06:40:21;;;;;;;14.63;5.72;;;-2.10;99.90;;;-3.78;100.00;102055.03;5047046;28;20032;-79
2023/02/27 06:42:48;;;;;;;12.00;5.70;;;-2.00;99.90;;;-3.70;100.00;102056.41;5047416;28;20079;-78
2023/02/27 06:45:15;;;;;;;10.13;5.55;;;-2.00;99.90;;;-3.69;100.00;102055.44;5047856;28;20206;-79
2023/02/27 06:47:42;;;;;;;12.73;6.05;;;-1.90;99.90;;;-3.62;100.00;102060.34;5041948;28;20048;-77
2023/02/27 06:50:11;;;;;;;9.05;5.30;;;-1.90;99.90;;;-3.55;100.00;102066.19;5046784;28;20044;-80
2023/02/27 06:52:39;;;;;;;14.38;6.20;;;-1.80;99.90;;;-3.46;100.00;102072.78;5044077;28;20266;-79
2023/02/27 06:55:07;;;;;;;9.77;5.93;;;-1.70;99.90;;;-3.43;100.00;102072.63;5032786;28;20037;-79
2023/02/27 06:57:33;;;;;;;;;;;-1.70;99.90;;;-3.35;100.00;102074.81;5034139;28;20485;-78
2023/02/27 06:59:58;;;;;;;11.65;5.95;;;-1.70;99.90;;;-3.25;100.00;102077.81;5047210;28;20310;-80
2023/02/27 07:02:24;;;;;;;12.27;6.85;;;-1.50;99.90;;;-3.18;100.00;102082.69;5040331;28;20040;-81
2023/02/27 07:04:51;;;;;;;13.75;6.88;;;-1.50;99.90;;;-3.04;100.00;102081.03;5042499;28;20025;-79
2023/02/27 07:07:18;;;;;;;13.25;6.20;;;-1.40;99.90;;;-2.98;100.00;102080.66;5046302;28;20036;-79
2023/02/27 07:09:44;;;;;;;14.02;6.15;;;-1.30;99.90;;;-2.86;100.00;102081.72;5053322;28;20461;-80
2023/02/27 07:12:10;;;;;;;12.30;6.18;;;-1.10;99.90;;;-2.83;100.00;102075.31;5028440;28;20033;-80
2023/02/27 07:14:36;;;;;;;14.27;6.43;;;-1.00;99.90;;;-2.76;100.00;102082.84;5054803;28;20443;-79
2023/02/27 07:17:03;;;;;;;14.60;6.28;;;-1.00;99.90;;;-2.71;100.00;102085.25;5038785;28;20128;-78
2023/02/27 07:19:31;;;;;;;15.80;6.90;;;-0.90;99.90;;;-2.69;100.00;102071.78;5037777;28;20041;-78
2023/02/27 07:21:57;;;;;;;10.55;5.45;;;-0.80;99.90;;;-2.57;100.00;102092.41;5059539;28;20041;-80
2023/02/27 07:24:23;;;;;;;14.73;6.03;;;-0.70;99.90;;;-2.52;100.00;102082.28;5045843;28;20031;-80
2023/02/27 07:26:48;;;;;;;14.75;5.95;;;-0.70;99.90;;;-2.48;100.00;102081.16;5061961;28;20048;-81
2023/02/27 07:29:14;;;;;;;10.88;5.43;;;-0.60;99.90;;;-2.49;100.00;102082.09;5044888;28;20041;-81
2023/02/27 07:31:40;;;;;;;14.48;6.00;;;-0.60;99.90;;;-2.53;100.00;102077.91;5061099;28;20033;-83
2023/02/27 07:34:06;;;;;;;12.75;5.53;;;-0.60;99.90;;;-2.51;100.00;102091.19;5036933;28;20105;-80
2023/02/27 07:36:32;;;;;;;13.80;5.68;;;-0.60;99.90;;;-2.49;100.00;102079.44;5040312;28;20090;-85
2023/02/27 07:38:58;;;;;;;17.10;5.60;;;-0.60;99.90;;;-2.45;100.00;102082.78;5046422;28;20083;-81
2023/02/27 07:41:24;;;;;;;10.27;5.20;;;-0.60;99.90;;;-2.39;100.00;102081.50;5043575;28;20525;-81
2023/02/27 07:43:50;;;;;;;16.17;5.95;;;-0.50;99.90;;;-2.39;100.00;102076.16;5031292;28;20171;-83
2023/02/27 07:46:16;;;;;;;13.30;5.65;;;-0.50;99.90;;;-2.44;100.00;102081.81;5038474;28;20405;-83
2023/02/27 07:48:42;;;;;;;17.80;6.90;;;-0.50;99.90;;;-2.37;100.00;102087.66;5041751;28;20077;-83
2023/02/27 07:51:08;;;;;;;12.18;5.90;;;-0.50;99.90;;;-2.33;100.00;102090.00;5045837;28;20037;-81
2023/02/27 07:53:33;;;;;;;15.00;5.85;;;-0.50;99.90;;;-2.33;100.00;102084.66;5041074;28;20077;-83
2023/02/27 07:55:59;;;;;;;14.40;5.45;;;-0.50;99.90;;;-2.24;100.00;102066.34;5045936;28;20045;-85
2023/02/27 07:58:25;;;;;;;14.65;5.57;;;-0.40;99.90;;;-2.12;100.00;102083.38;5043485;28;20094;-87
2023/02/27 08:00:53;;;;;;;11.70;5.55;;;-0.30;99.90;;;-2.23;100.00;102063.56;5049527;28;20037;-86
2023/02/27 08:03:19;;;;;;;;;;;-0.30;99.90;;;-2.09;100.00;102075.19;5044244;28;20550;-87
2023/02/27 08:05:44;;;;;;;10.35;4.65;;;-0.20;99.90;;;-2.04;100.00;102081.94;5039384;28;20020;-85
2023/02/27 08:08:10;;;;;;;10.52;5.57;;;-0.20;99.90;;;-2.02;100.00;102082.69;5045190;28;20048;-85
2023/02/27 08:10:36;;;;;;;14.75;6.38;;;-0.20;99.90;;;-1.89;100.00;102092.63;5045674;28;20037;-84
2023/02/27 08:13:01;;;;;;;10.27;5.57;;;-0.10;99.90;;;-2.04;100.00;102087.28;5045984;28;20038;-84
2023/02/27 08:15:27;;;;;;;11.80;5.30;;;-0.10;99.90;;;-2.01;100.00;102083.56;5064003;28;20488;-85
2023/02/27 08:17:53;;;;;;;11.70;4.93;;;-0.10;99.90;;;-1.84;100.00;102089.66;5047823;28;20064;-86
2023/02/27 08:20:21;;;;;;;12.75;5.40;;;0.00;99.90;;;-1.79;100.00;102082.19;5048356;28;20033;-85
2023/02/27 08:22:47;;;;;;;10.38;5.22;;;0.20;99.90;;;-1.47;100.00;102098.78;5047191;28;20032;-85
2023/02/27 08:25:14;;;;;;;10.35;5.35;;;0.40;99.90;;;-1.28;100.00;102112.78;5036069;28;20037;-86
2023/02/27 08:27:40;;;;;;;11.50;5.93;;;0.60;99.90;;;-1.11;100.00;102107.13;5042490;28;20122;-85
2023/02/27 08:30:09;;;;;;;13.02;5.55;;;0.80;99.90;;;-0.91;100.00;102111.13;5045349;28;20040;-85
2023/02/27 08:32:35;;;;;;;13.70;5.55;;;1.00;99.90;;;-0.80;100.00;102109.53;5048130;28;20060;-86
2023/02/27 08:35:02;;;;;;;9.65;4.90;;;1.10;99.90;;;-0.69;100.00;102112.31;5047252;28;20040;-87
2023/02/27 08:37:28;;;;;;;11.38;5.03;;;1.20;99.90;;;-0.46;100.00;102121.44;5063739;28;21022;-84
2023/02/27 08:39:54;;;;;;;12.68;4.57;;;1.40;99.90;;;-0.30;100.00;102114.97;5052239;28;20283;-87
2023/02/27 08:42:21;;;;;;;12.35;5.32;;;1.50;99.90;;;-0.03;100.00;102116.63;5053634;28;20124;-86
2023/02/27 08:44:49;;;;;;;9.52;4.43;;;1.70;99.90;;;0.12;100.00;102104.81;5049690;28;20029;-85
2023/02/27 08:47:15;;;;;;;;;;;1.90;99.90;;;0.13;100.00;102101.16;5069322;28;20036;-83
2023/02/27 08:49:41;;;;;;;10.00;4.13;;;2.00;99.90;;;0.16;100.00;102097.41;5042673;28;20003;-86
2023/02/27 08:52:08;;;;;;;10.77;4.82;;;2.00;99.90;;;0.13;100.00;102101.16;5064782;28;20041;-84
2023/02/27 08:54:35;;;;;;;8.10;4.27;;;2.10;99.90;;;0.45;100.00;102117.66;5068183;28;20045;-85
2023/02/27 08:57:02;;;;;;;10.18;5.30;;;2.20;99.90;;;0.70;100.00;102130.97;5043372;28;20373;-86
2023/02/27 08:59:29;;;;;;;9.48;4.78;;;2.40;99.90;;;0.77;100.00;102101.81;5063991;28;20052;-86
2023/02/27 09:01:55;;;;;;;9.80;5.18;;;2.60;99.90;;;0.99;100.00;102101.03;5062159;28;20039;-85
2023/02/27 09:04:21;;;;;;;9.65;4.53;;;2.80;99.90;;;1.23;100.00;102100.09;5064437;28;20120;-85
2023/02/27 09:06:47;;;;;;;9.73;4.85;;;3.00;99.90;;;1.47;100.00;102101.84;5049696;28;20585;-84
2023/02/27 09:09:13;;;;;;;8.48;4.30;;;3.20;99.90;;;1.58;100.00;102109.91;5048662;28;20033;-88
2023/02/27 09:11:39;;;;;;;9.68;4.05;;;3.40;99.90;;;1.66;100.00;102117.38;5037296;28;20033;-86
2023/02/27 09:14:05;;;;;;;10.13;4.78;;;3.40;99.90;;;1.77;100.00;102107.63;5060848;28;20381;-84
2023/02/27 09:16:31;;;;;;;11.85;4.45;;;3.50;99.90;;;1.94;100.00;102127.78;5049723;28;20069;-85
2023/02/27 09:18:57;;;;;;;10.23;4.35;;;3.60;99.90;;;2.03;100.00;102126.19;5067169;28;20056;-84
2023/02/27 09:21:23;;;;;;;9.88;4.35;;;3.80;99.90;;;1.88;100.00;102099.53;5047472;28;20041;-85
2023/02/27 09:23:51;;;;;;;14.05;4.43;;;3.70;99.90;;;2.10;100.00;102124.72;5063071;28;20044;-84
2023/02/27 09:26:16;;;;;;;9.20;4.28;;;3.80;99.90;;;2.37;100.00;102126.13;5065545;28;20053;-86
2023/02/27 09:28:43;;;;;;;8.55;4.68;;;4.00;99.90;;;2.59;100.00;102123.38;5058661;28;20937;-87
2023/02/27 09:31:11;;;;;;;11.32;5.05;;;4.20;99.90;;;2.77;100.00;102116.56;5042681;28;20083;-84
2023/02/27 09:33:37;;;;;;;10.77;4.32;;;4.60;99.90;;;2.79;100.00;102099.28;5034029;28;20045;-83
2023/02/27 09:36:05;;;;;;;14.20;4.50;;;4.70;99.90;;;3.08;100.00;102127.44;5055350;28;20035;-84
2023/02/27 09:38:35;;;;;;;9.65;4.15;;;4.90;99.90;;;3.11;100.00;102114.56;5061047;28;20506;-82
2023/02/27 09:41:02;;;;;;;10.75;4.13;;;4.90;99.90;;;3.29;100.00;102125.59;5049388;28;20499;-84
2023/02/27 09:43:38;;;;;;;12.75;3.95;;;5.10;99.90;;;3.14;100.00;102125.09;5045804;28;20061;-84
2023/02/27 09:46:06;;;;;;;11.32;4.15;;;5.10;99.90;;;3.35;100.00;102115.25;5040634;28;20087;-89
2023/02/27 09:48:58;;;;;;;7.25;3.60;;;5.30;99.90;;;3.68;100.00;102124.09;5047564;28;20045;-89
2023/02/27 09:51:26;;;;;;;9.65;3.40;;;5.40;99.90;;;3.86;94.53;102103.56;5060729;28;20039;-85
2023/02/27 09:53:58;;;;;;;11.18;3.30;;;5.70;99.90;;;4.20;90.57;102106.94;5049735;28;20612;-85
2023/02/27 09:56:52;;;;;;;7.55;3.30;;;5.90;99.90;;;4.32;87.01;102097.72;5049339;28;20116;-84
2023/02/27 09:59:38;;;;;;;11.30;3.60;;;6.10;99.90;;;4.27;85.89;102100.84;5049374;28;20624;-86
2023/02/27 10:02:32;;;;;;;8.48;3.65;;;6.20;99.90;;;3.88;87.85;102111.53;5048983;28;20025;-87
2023/02/27 10:05:25;;;;;;;8.38;4.22;;;6.10;99.90;;;3.47;90.19;102102.53;5050877;28;20625;-87
2023/02/27 10:08:34;;;;;;;7.90;4.68;;;5.80;99.90;;;3.69;91.43;102106.91;5065658;28;20048;-86
2023/02/27 10:11:11;;;;;;;11.35;4.88;;;5.70;99.90;;;3.85;88.48;102101.03;5042768;28;20029;-83
2023/02/27 10:14:20;;;;;;;10.93;4.50;;;6.80;99.90;;;3.99;84.33;102089.81;5045237;28;20170;-84
2023/02/27 10:16:50;;;;;;;10.93;4.93;;;7.00;99.90;;;4.57;82.57;102084.66;5050411;28;20035;-85
2023/02/27 10:19:32;;;;;;;8.90;4.03;;;7.30;99.90;;;5.86;71.81;102072.53;5047847;28;20091;-87
2023/02/27 10:22:05;;;;;;;9.75;4.32;;;8.60;99.90;;;4.35;76.36;102102.84;5047925;28;20078;-85
2023/02/27 10:24:53;;;;;;;11.57;4.00;;;8.40;98.40;;;4.01;81.15;102114.00;5065714;28;20060;-85
2023/02/27 10:27:20;;;;;;;6.93;3.83;;;7.50;99.90;;;4.22;80.03;102107.63;5046950;28;20431;-86
2023/02/27 10:29:46;;;;;;;11.23;3.95;;;6.90;99.90;;;4.05;79.14;102107.34;5048221;28;20037;-87
2023/02/27 10:32:25;;;;;;;11.57;4.13;;;6.60;99.90;;;3.55;85.00;102116.22;5049694;28;20045;-88
2023/02/27 10:35:04;;;;;;;;;;;6.00;99.90;;;3.44;86.69;102119.84;5044916;28;20032;-84
2023/02/27 10:37:30;;;;;;;12.80;5.05;;;5.70;99.90;;;3.26;89.37;102131.25;5033960;28;19916;-88
2023/02/27 10:40:03;;;;;;;8.95;4.00;;;5.40;99.90;;;3.22;89.11;102116.34;5048299;28;20182;-85
2023/02/27 10:42:37;;;;;;;8.13;3.72;;;5.10;99.90;;;3.20;91.78;102117.44;5046985;28;20044;-87